KHNR

Harlan Municipal Airport

Harlan, Iowa, USA
METAR KHNR 150315Z AUTO 03006KT 3SM -RA 19/19 A2993 RMK AO2
Observed Flight Rules
Aug-15 @ 03:15 UTC (21 minutes ago)
Wind Visibility Conditions
30° at 6 knots 3 miles
  • Light Rain
Temperatures Readings
Current 19°C / 66°F
Dewpoint 19°C / 66°F
Humidity 100%
Altimeter 29.93" Hg
Pressure 1014 hPa
Elevation 375
METAR KHNR 150315Z AUTO 03006KT 3SM -RA 19/19 A2993 RMK AO2
Observed Flight Rules
Aug-15 @ 03:15 UTC
(21 minutes ago)
Wind Visibility
30° at 6 knots 3 miles
Conditions
  • Light Rain
Temperature Dewpoint
19°C / 66°F 19°C / 66°F
Humidity Altimeter Pressure
100% 29.93" Hg 1014 hPa